sensor_id;sensor_type;location;lat;lon;timestamp;temperature;humidity
17968;DHT22;9109;48.050;11.696;2022-12-15T04:48:03;-0.80;99.90
17968;DHT22;9109;48.050;11.696;2022-12-15T04:51:22;-0.70;99.90
17968;DHT22;9109;48.050;11.696;2022-12-15T04:54:42;-0.70;99.90
17968;DHT22;9109;48.050;11.696;2022-12-15T04:58:05;-0.50;99.90
17968;DHT22;9109;48.050;11.696;2022-12-15T05:01:25;-0.40;99.90
17968;DHT22;9109;48.050;11.696;2022-12-15T05:04:45;-0.40;99.90
17968;DHT22;9109;48.050;11.696;2022-12-15T05:08:05;-0.30;99.90
17968;DHT22;9109;48.050;11.696;2022-12-15T05:11:24;-0.30;99.90
17968;DHT22;9109;48.050;11.696;2022-12-15T05:14:43;-0.30;99.90
17968;DHT22;9109;48.050;11.696;2022-12-15T05:18:03;-0.40;99.90
17968;DHT22;9109;48.050;11.696;2022-12-15T05:21:24;-0.40;99.90
17968;DHT22;9109;48.050;11.696;2022-12-15T05:24:44;-0.40;99.90
17968;DHT22;9109;48.050;11.696;2022-12-15T05:28:06;-0.30;99.90
17968;DHT22;9109;48.050;11.696;2022-12-15T05:31:26;-0.30;99.90
17968;DHT22;9109;48.050;11.696;2022-12-15T05:34:45;-0.50;99.90
17968;DHT22;9109;48.050;11.696;2022-12-15T05:37:48;-0.50;99.90
17968;DHT22;9109;48.050;11.696;2022-12-15T05:40:50;-0.60;99.90
17968;DHT22;9109;48.050;11.696;2022-12-15T05:43:52;-0.80;99.90
17968;DHT22;9109;48.050;11.696;2022-12-15T05:46:55;-0.90;99.90
17968;DHT22;9109;48.050;11.696;2022-12-15T05:49:57;-1.00;99.90
17968;DHT22;9109;48.050;11.696;2022-12-15T05:53:00;-1.10;99.90
17968;DHT22;9109;48.050;11.696;2022-12-15T05:56:02;-1.00;99.90
17968;DHT22;9109;48.050;11.696;2022-12-15T05:59:08;-1.00;99.90
17968;DHT22;9109;48.050;11.696;2022-12-15T06:02:10;-0.80;99.90
17968;DHT22;9109;48.050;11.696;2022-12-15T06:05:19;-0.70;99.90
17968;DHT22;9109;48.050;11.696;2022-12-15T06:08:34;-0.70;99.90
17968;DHT22;9109;48.050;11.696;2022-12-15T06:11:41;-0.60;99.90
17968;DHT22;9109;48.050;11.696;2022-12-15T06:14:43;-0.70;99.90
17968;DHT22;9109;48.050;11.696;2022-12-15T06:17:46;-0.90;99.90
17968;DHT22;9109;48.050;11.696;2022-12-15T06:20:48;-0.80;99.90
17968;DHT22;9109;48.050;11.696;2022-12-15T06:23:51;-0.70;99.90
17968;DHT22;9109;48.050;11.696;2022-12-15T06:26:54;-0.80;99.90
17968;DHT22;9109;48.050;11.696;2022-12-15T06:29:55;-1.00;99.90
17968;DHT22;9109;48.050;11.696;2022-12-15T06:32:57;-1.10;99.90
17968;DHT22;9109;48.050;11.696;2022-12-15T06:36:01;-1.00;99.90
17968;DHT22;9109;48.050;11.696;2022-12-15T06:39:11;-0.90;99.90
17968;DHT22;9109;48.050;11.696;2022-12-15T06:42:14;-0.90;99.90
17968;DHT22;9109;48.050;11.696;2022-12-15T06:45:16;-1.00;99.90
17968;DHT22;9109;48.050;11.696;2022-12-15T06:48:18;-1.00;99.90
17968;DHT22;9109;48.050;11.696;2022-12-15T06:51:20;-1.00;99.90
17968;DHT22;9109;48.050;11.696;2022-12-15T06:54:24;-1.10;99.90
17968;DHT22;9109;48.050;11.696;2022-12-15T06:57:29;-1.00;99.90
17968;DHT22;9109;48.050;11.696;2022-12-15T07:00:32;-0.80;99.90
17968;DHT22;9109;48.050;11.696;2022-12-15T07:03:36;-0.80;99.90
17968;DHT22;9109;48.050;11.696;2022-12-15T07:06:40;-0.80;99.90
17968;DHT22;9109;48.050;11.696;2022-12-15T07:09:53;-1.00;99.90
17968;DHT22;9109;48.050;11.696;2022-12-15T07:12:55;-1.10;99.90
17968;DHT22;9109;48.050;11.696;2022-12-15T07:15:58;-1.20;99.90
17968;DHT22;9109;48.050;11.696;2022-12-15T07:19:00;-1.30;99.90
17968;DHT22;9109;48.050;11.696;2022-12-15T07:22:03;-1.20;99.90
17968;DHT22;9109;48.050;11.696;2022-12-15T07:25:08;-1.10;99.90
17968;DHT22;9109;48.050;11.696;2022-12-15T07:28:09;-0.90;99.90
17968;DHT22;9109;48.050;11.696;2022-12-15T07:31:12;-0.80;99.90
17968;DHT22;9109;48.050;11.696;2022-12-15T07:34:14;-0.80;99.90
17968;DHT22;9109;48.050;11.696;2022-12-15T07:37:16;-0.80;99.90
17968;DHT22;9109;48.050;11.696;2022-12-15T07:40:20;-0.70;99.90
17968;DHT22;9109;48.050;11.696;2022-12-15T07:43:22;-0.70;99.90
17968;DHT22;9109;48.050;11.696;2022-12-15T07:46:24;-0.60;99.90
17968;DHT22;9109;48.050;11.696;2022-12-15T07:49:31;-0.50;99.90
17968;DHT22;9109;48.050;11.696;2022-12-15T07:52:33;-0.50;99.90
17968;DHT22;9109;48.050;11.696;2022-12-15T07:55:44;-0.50;99.90
17968;DHT22;9109;48.050;11.696;2022-12-15T07:58:53;-0.40;99.90
17968;DHT22;9109;48.050;11.696;2022-12-15T08:01:55;-0.60;99.90
17968;DHT22;9109;48.050;11.696;2022-12-15T08:04:58;-0.50;99.90
17968;DHT22;9109;48.050;11.696;2022-12-15T08:08:00;-0.40;99.90
17968;DHT22;9109;48.050;11.696;2022-12-15T08:11:05;-0.40;99.90
17968;DHT22;9109;48.050;11.696;2022-12-15T08:14:07;-0.30;99.90
17968;DHT22;9109;48.050;11.696;2022-12-15T08:17:09;-0.20;99.90
17968;DHT22;9109;48.050;11.696;2022-12-15T08:20:11;-0.20;99.90
17968;DHT22;9109;48.050;11.696;2022-12-15T08:23:14;-0.20;99.90
17968;DHT22;9109;48.050;11.696;2022-12-15T08:26:18;-0.20;99.90
17968;DHT22;9109;48.050;11.696;2022-12-15T08:29:20;-0.10;99.90
17968;DHT22;9109;48.050;11.696;2022-12-15T08:32:22;0.00;99.90
17968;DHT22;9109;48.050;11.696;2022-12-15T08:35:24;0.00;99.90
17968;DHT22;9109;48.050;11.696;2022-12-15T08:38:26;0.00;99.90
17968;DHT22;9109;48.050;11.696;2022-12-15T08:41:30;0.00;99.90
17968;DHT22;9109;48.050;11.696;2022-12-15T08:44:33;0.00;99.90
17968;DHT22;9109;48.050;11.696;2022-12-15T08:47:35;-0.10;99.90
17968;DHT22;9109;48.050;11.696;2022-12-15T08:50:37;0.00;99.90
17968;DHT22;9109;48.050;11.696;2022-12-15T08:53:43;0.10;99.90
17968;DHT22;9109;48.050;11.696;2022-12-15T08:56:46;0.10;99.90
17968;DHT22;9109;48.050;11.696;2022-12-15T08:59:49;0.20;99.90
17968;DHT22;9109;48.050;11.696;2022-12-15T09:02:50;0.20;99.90
17968;DHT22;9109;48.050;11.696;2022-12-15T09:05:52;0.20;99.90
17968;DHT22;9109;48.050;11.696;2022-12-15T09:08:55;0.30;99.90
17968;DHT22;9109;48.050;11.696;2022-12-15T09:11:58;0.30;99.90
17968;DHT22;9109;48.050;11.696;2022-12-15T09:15:00;0.30;99.90
17968;DHT22;9109;48.050;11.696;2022-12-15T09:18:02;0.30;99.90
17968;DHT22;9109;48.050;11.696;2022-12-15T09:21:06;0.40;99.90
17968;DHT22;9109;48.050;11.696;2022-12-15T09:24:11;0.30;99.90
17968;DHT22;9109;48.050;11.696;2022-12-15T09:27:15;0.30;99.90
17968;DHT22;9109;48.050;11.696;2022-12-15T09:30:19;0.20;99.90
17968;DHT22;9109;48.050;11.696;2022-12-15T09:33:21;0.20;99.90
17968;DHT22;9109;48.050;11.696;2022-12-15T09:36:23;0.20;99.90
17968;DHT22;9109;48.050;11.696;2022-12-15T09:39:25;0.20;99.90
17968;DHT22;9109;48.050;11.696;2022-12-15T09:42:29;0.20;99.90
17968;DHT22;9109;48.050;11.696;2022-12-15T09:45:36;0.20;99.90
17968;DHT22;9109;48.050;11.696;2022-12-15T09:48:42;0.20;99.90
17968;DHT22;9109;48.050;11.696;2022-12-15T09:51:49;0.30;99.90
17968;DHT22;9109;48.050;11.696;2022-12-15T09:54:51;0.30;99.90
17968;DHT22;9109;48.050;11.696;2022-12-15T09:57:56;0.40;99.90
17968;DHT22;9109;48.050;11.696;2022-12-15T10:01:04;0.40;99.90
17968;DHT22;9109;48.050;11.696;2022-12-15T10:04:14;0.20;99.90
17968;DHT22;9109;48.050;11.696;2022-12-15T10:07:26;0.40;99.90
17968;DHT22;9109;48.050;11.696;2022-12-15T10:10:32;0.50;99.90
17968;DHT22;9109;48.050;11.696;2022-12-15T10:13:43;0.50;99.90
17968;DHT22;9109;48.050;11.696;2022-12-15T10:16:55;0.40;99.90
17968;DHT22;9109;48.050;11.696;2022-12-15T10:20:01;0.50;99.90
17968;DHT22;9109;48.050;11.696;2022-12-15T10:23:11;0.40;99.90
17968;DHT22;9109;48.050;11.696;2022-12-15T10:26:17;0.20;99.90
17968;DHT22;9109;48.050;11.696;2022-12-15T10:29:28;0.30;99.90
17968;DHT22;9109;48.050;11.696;2022-12-15T10:32:43;0.40;99.90
17968;DHT22;9109;48.050;11.696;2022-12-15T10:35:46;0.30;99.90
17968;DHT22;9109;48.050;11.696;2022-12-15T10:38:49;0.30;99.90
17968;DHT22;9109;48.050;11.696;2022-12-15T10:42:13;0.10;99.90
17968;DHT22;9109;48.050;11.696;2022-12-15T10:45:34;0.10;99.90
17968;DHT22;9109;48.050;11.696;2022-12-15T10:48:38;0.20;99.90
17968;DHT22;9109;48.050;11.696;2022-12-15T10:51:43;0.40;99.90
17968;DHT22;9109;48.050;11.696;2022-12-15T10:54:47;0.60;99.90
17968;DHT22;9109;48.050;11.696;2022-12-15T10:57:57;0.50;99.90
17968;DHT22;9109;48.050;11.696;2022-12-15T11:01:07;0.30;99.90
17968;DHT22;9109;48.050;11.696;2022-12-15T11:04:24;0.30;99.90
17968;DHT22;9109;48.050;11.696;2022-12-15T11:07:32;0.40;99.90
17968;DHT22;9109;48.050;11.696;2022-12-15T11:10:34;0.50;99.90
17968;DHT22;9109;48.050;11.696;2022-12-15T11:14:03;0.60;99.90
17968;DHT22;9109;48.050;11.696;2022-12-15T11:17:08;0.40;99.90
17968;DHT22;9109;48.050;11.696;2022-12-15T11:20:19;0.60;99.90
17968;DHT22;9109;48.050;11.696;2022-12-15T11:23:29;0.70;99.90
17968;DHT22;9109;48.050;11.696;2022-12-15T11:26:45;0.80;99.90
17968;DHT22;9109;48.050;11.696;2022-12-15T11:30:03;0.80;99.90
17968;DHT22;9109;48.050;11.696;2022-12-15T11:33:12;0.70;99.90
17968;DHT22;9109;48.050;11.696;2022-12-15T11:39:48;0.80;99.90
17968;DHT22;9109;48.050;11.696;2022-12-15T11:43:17;0.90;99.90
17968;DHT22;9109;48.050;11.696;2022-12-15T11:46:38;0.80;99.90
17968;DHT22;9109;48.050;11.696;2022-12-15T11:50:07;0.90;99.90
17968;DHT22;9109;48.050;11.696;2022-12-15T11:53:34;0.70;99.90
17968;DHT22;9109;48.050;11.696;2022-12-15T11:56:41;0.70;99.90
17968;DHT22;9109;48.050;11.696;2022-12-15T11:59:54;0.80;99.90
17968;DHT22;9109;48.050;11.696;2022-12-15T12:03:09;0.90;99.90
17968;DHT22;9109;48.050;11.696;2022-12-15T12:06:20;0.80;99.90
17968;DHT22;9109;48.050;11.696;2022-12-15T12:09:30;0.50;99.90
17968;DHT22;9109;48.050;11.696;2022-12-15T12:12:39;0.50;99.90
17968;DHT22;9109;48.050;11.696;2022-12-15T12:15:50;0.60;99.90
17968;DHT22;9109;48.050;11.696;2022-12-15T12:18:59;0.80;99.90
17968;DHT22;9109;48.050;11.696;2022-12-15T12:22:09;0.90;99.90
17968;DHT22;9109;48.050;11.696;2022-12-15T12:25:15;0.90;99.90
17968;DHT22;9109;48.050;11.696;2022-12-15T12:28:21;0.90;99.90
17968;DHT22;9109;48.050;11.696;2022-12-15T12:31:39;0.90;99.90
17968;DHT22;9109;48.050;11.696;2022-12-15T12:34:53;1.00;99.90
17968;DHT22;9109;48.050;11.696;2022-12-15T12:38:00;1.10;99.90
17968;DHT22;9109;48.050;11.696;2022-12-15T12:41:07;0.90;99.90
17968;DHT22;9109;48.050;11.696;2022-12-15T12:44:18;0.90;99.90
17968;DHT22;9109;48.050;11.696;2022-12-15T12:47:25;1.00;99.90
17968;DHT22;9109;48.050;11.696;2022-12-15T12:50:29;0.90;99.90
17968;DHT22;9109;48.050;11.696;2022-12-15T12:53:34;0.90;99.90
17968;DHT22;9109;48.050;11.696;2022-12-15T12:56:39;0.80;99.90
17968;DHT22;9109;48.050;11.696;2022-12-15T12:59:43;0.80;99.90
17968;DHT22;9109;48.050;11.696;2022-12-15T13:10:18;0.80;99.90
17968;DHT22;9109;48.050;11.696;2022-12-15T13:13:41;0.90;99.90
17968;DHT22;9109;48.050;11.696;2022-12-15T13:16:45;0.80;99.90
17968;DHT22;9109;48.050;11.696;2022-12-15T13:20:14;0.90;99.90
17968;DHT22;9109;48.050;11.696;2022-12-15T13:23:40;0.90;99.90
17968;DHT22;9109;48.050;11.696;2022-12-15T13:26:45;0.60;99.90
17968;DHT22;9109;48.050;11.696;2022-12-15T13:29:57;0.30;99.90
17968;DHT22;9109;48.050;11.696;2022-12-15T13:33:14;0.30;99.90
17968;DHT22;9109;48.050;11.696;2022-12-15T13:36:45;0.40;99.90
17968;DHT22;9109;48.050;11.696;2022-12-15T13:39:53;0.40;99.90
17968;DHT22;9109;48.050;11.696;2022-12-15T13:43:08;0.50;99.90
17968;DHT22;9109;48.050;11.696;2022-12-15T13:46:14;0.50;99.90
17968;DHT22;9109;48.050;11.696;2022-12-15T13:49:23;0.60;99.90
17968;DHT22;9109;48.050;11.696;2022-12-15T13:52:31;0.60;99.90
17968;DHT22;9109;48.050;11.696;2022-12-15T13:55:37;0.60;99.90
17968;DHT22;9109;48.050;11.696;2022-12-15T13:58:43;0.60;99.90
17968;DHT22;9109;48.050;11.696;2022-12-15T14:01:48;0.50;99.90
17968;DHT22;9109;48.050;11.696;2022-12-15T14:05:05;0.50;99.90
17968;DHT22;9109;48.050;11.696;2022-12-15T14:08:13;0.50;99.90
17968;DHT22;9109;48.050;11.696;2022-12-15T14:11:21;0.40;99.90
17968;DHT22;9109;48.050;11.696;2022-12-15T14:14:28;0.40;99.90
17968;DHT22;9109;48.050;11.696;2022-12-15T14:17:35;0.30;99.90
17968;DHT22;9109;48.050;11.696;2022-12-15T14:20:39;0.20;99.90
17968;DHT22;9109;48.050;11.696;2022-12-15T14:23:43;0.20;99.90
17968;DHT22;9109;48.050;11.696;2022-12-15T14:26:45;0.30;99.90
17968;DHT22;9109;48.050;11.696;2022-12-15T14:29:49;0.20;99.90
17968;DHT22;9109;48.050;11.696;2022-12-15T14:32:54;0.10;99.90
17968;DHT22;9109;48.050;11.696;2022-12-15T14:35:59;0.10;99.90
17968;DHT22;9109;48.050;11.696;2022-12-15T14:39:04;0.10;99.90
17968;DHT22;9109;48.050;11.696;2022-12-15T14:42:10;0.20;99.90
17968;DHT22;9109;48.050;11.696;2022-12-15T14:45:19;0.20;99.90
17968;DHT22;9109;48.050;11.696;2022-12-15T14:48:27;0.20;99.90
17968;DHT22;9109;48.050;11.696;2022-12-15T14:51:37;0.20;99.90
17968;DHT22;9109;48.050;11.696;2022-12-15T14:54:49;0.10;99.90
17968;DHT22;9109;48.050;11.696;2022-12-15T14:57:53;0.10;99.90
17968;DHT22;9109;48.050;11.696;2022-12-15T15:00:57;0.10;99.90
17968;DHT22;9109;48.050;11.696;2022-12-15T15:04:00;0.00;99.90
17968;DHT22;9109;48.050;11.696;2022-12-15T15:07:05;-0.10;99.90
17968;DHT22;9109;48.050;11.696;2022-12-15T15:10:21;-0.10;99.90
17968;DHT22;9109;48.050;11.696;2022-12-15T15:13:26;-0.20;99.90
17968;DHT22;9109;48.050;11.696;2022-12-15T15:16:32;-0.20;99.90
17968;DHT22;9109;48.050;11.696;2022-12-15T15:19:36;-0.20;99.90
17968;DHT22;9109;48.050;11.696;2022-12-15T15:22:41;0.00;99.90
17968;DHT22;9109;48.050;11.696;2022-12-15T15:25:49;0.00;99.90
17968;DHT22;9109;48.050;11.696;2022-12-15T15:28:51;0.10;99.90
17968;DHT22;9109;48.050;11.696;2022-12-15T15:32:04;0.20;99.90
17968;DHT22;9109;48.050;11.696;2022-12-15T15:35:07;0.10;99.90
17968;DHT22;9109;48.050;11.696;2022-12-15T15:38:18;-0.10;99.90
17968;DHT22;9109;48.050;11.696;2022-12-15T15:41:26;0.00;99.90
17968;DHT22;9109;48.050;11.696;2022-12-15T15:44:29;0.20;99.90
17968;DHT22;9109;48.050;11.696;2022-12-15T15:47:33;0.20;99.90
17968;DHT22;9109;48.050;11.696;2022-12-15T15:50:36;0.20;99.90
17968;DHT22;9109;48.050;11.696;2022-12-15T15:53:39;0.10;99.90
17968;DHT22;9109;48.050;11.696;2022-12-15T15:56:41;0.20;99.90
17968;DHT22;9109;48.050;11.696;2022-12-15T15:59:44;0.20;99.90
17968;DHT22;9109;48.050;11.696;2022-12-15T16:03:07;0.10;99.90
17968;DHT22;9109;48.050;11.696;2022-12-15T16:06:15;0.20;99.90
17968;DHT22;9109;48.050;11.696;2022-12-15T16:09:21;0.20;99.90
17968;DHT22;9109;48.050;11.696;2022-12-15T16:12:27;0.30;99.90
17968;DHT22;9109;48.050;11.696;2022-12-15T16:15:30;0.40;99.90
17968;DHT22;9109;48.050;11.696;2022-12-15T16:18:34;0.30;99.90
17968;DHT22;9109;48.050;11.696;2022-12-15T16:21:36;0.20;99.90
17968;DHT22;9109;48.050;11.696;2022-12-15T16:24:38;0.20;99.90
17968;DHT22;9109;48.050;11.696;2022-12-15T16:27:43;0.20;99.90
17968;DHT22;9109;48.050;11.696;2022-12-15T16:30:45;0.10;99.90
17968;DHT22;9109;48.050;11.696;2022-12-15T16:33:48;0.10;99.90
17968;DHT22;9109;48.050;11.696;2022-12-15T16:36:50;0.10;99.90
17968;DHT22;9109;48.050;11.696;2022-12-15T16:39:52;0.10;99.90
17968;DHT22;9109;48.050;11.696;2022-12-15T16:42:56;0.20;99.90
17968;DHT22;9109;48.050;11.696;2022-12-15T16:45:59;0.10;99.90
17968;DHT22;9109;48.050;11.696;2022-12-15T16:49:03;0.10;99.90
17968;DHT22;9109;48.050;11.696;2022-12-15T16:52:17;0.10;99.90
17968;DHT22;9109;48.050;11.696;2022-12-15T16:55:23;0.20;99.90
17968;DHT22;9109;48.050;11.696;2022-12-15T16:58:26;0.10;99.90
17968;DHT22;9109;48.050;11.696;2022-12-15T17:01:28;0.10;99.90
17968;DHT22;9109;48.050;11.696;2022-12-15T17:04:38;0.10;99.90
17968;DHT22;9109;48.050;11.696;2022-12-15T17:07:40;0.10;99.90
17968;DHT22;9109;48.050;11.696;2022-12-15T17:10:43;0.10;99.90
17968;DHT22;9109;48.050;11.696;2022-12-15T17:13:46;0.20;99.90
17968;DHT22;9109;48.050;11.696;2022-12-15T17:16:50;0.10;99.90
17968;DHT22;9109;48.050;11.696;2022-12-15T17:19:54;0.10;99.90
17968;DHT22;9109;48.050;11.696;2022-12-15T17:22:59;0.10;99.90
17968;DHT22;9109;48.050;11.696;2022-12-15T17:26:01;0.10;99.90
17968;DHT22;9109;48.050;11.696;2022-12-15T17:29:06;0.10;99.90
17968;DHT22;9109;48.050;11.696;2022-12-15T17:32:10;0.10;99.90
17968;DHT22;9109;48.050;11.696;2022-12-15T17:35:15;0.20;99.90
17968;DHT22;9109;48.050;11.696;2022-12-15T17:38:18;0.10;99.90
17968;DHT22;9109;48.050;11.696;2022-12-15T17:41:22;0.10;99.90
17968;DHT22;9109;48.050;11.696;2022-12-15T17:44:25;0.10;99.90
17968;DHT22;9109;48.050;11.696;2022-12-15T17:47:27;0.10;99.90
17968;DHT22;9109;48.050;11.696;2022-12-15T17:50:31;0.10;99.90
17968;DHT22;9109;48.050;11.696;2022-12-15T17:53:33;0.10;99.90
17968;DHT22;9109;48.050;11.696;2022-12-15T17:56:35;0.10;99.90
17968;DHT22;9109;48.050;11.696;2022-12-15T17:59:37;0.10;99.90
17968;DHT22;9109;48.050;11.696;2022-12-15T18:02:39;0.00;99.90
17968;DHT22;9109;48.050;11.696;2022-12-15T18:05:43;-0.10;99.90
17968;DHT22;9109;48.050;11.696;2022-12-15T18:08:45;-0.20;99.90
17968;DHT22;9109;48.050;11.696;2022-12-15T18:11:47;-0.30;99.90
17968;DHT22;9109;48.050;11.696;2022-12-15T18:14:49;-0.30;99.90
17968;DHT22;9109;48.050;11.696;2022-12-15T18:17:51;-0.30;99.90
17968;DHT22;9109;48.050;11.696;2022-12-15T18:20:56;-0.30;99.90
17968;DHT22;9109;48.050;11.696;2022-12-15T18:23:59;-0.10;99.90
17968;DHT22;9109;48.050;11.696;2022-12-15T18:27:04;-0.20;99.90
17968;DHT22;9109;48.050;11.696;2022-12-15T18:30:18;-0.20;99.90
17968;DHT22;9109;48.050;11.696;2022-12-15T18:33:21;-0.30;99.90
17968;DHT22;9109;48.050;11.696;2022-12-15T18:36:25;-0.40;99.90
17968;DHT22;9109;48.050;11.696;2022-12-15T18:39:27;-0.30;99.90
17968;DHT22;9109;48.050;11.696;2022-12-15T18:42:29;-0.30;99.90
17968;DHT22;9109;48.050;11.696;2022-12-15T18:45:31;-0.40;99.90
17968;DHT22;9109;48.050;11.696;2022-12-15T18:48:33;-0.30;99.90
17968;DHT22;9109;48.050;11.696;2022-12-15T18:51:37;-0.20;99.90
17968;DHT22;9109;48.050;11.696;2022-12-15T18:54:39;-0.10;99.90
17968;DHT22;9109;48.050;11.696;2022-12-15T18:57:41;-0.10;99.90
17968;DHT22;9109;48.050;11.696;2022-12-15T19:00:43;0.00;99.90
17968;DHT22;9109;48.050;11.696;2022-12-15T19:03:45;0.00;99.90
17968;DHT22;9109;48.050;11.696;2022-12-15T19:06:48;0.00;99.90
17968;DHT22;9109;48.050;11.696;2022-12-15T19:09:50;-0.20;99.90
17968;DHT22;9109;48.050;11.696;2022-12-15T19:12:53;-0.30;99.90
17968;DHT22;9109;48.050;11.696;2022-12-15T19:15:55;-0.30;99.90
17968;DHT22;9109;48.050;11.696;2022-12-15T19:18:57;-0.30;99.90
17968;DHT22;9109;48.050;11.696;2022-12-15T19:22:17;-0.20;99.90
17968;DHT22;9109;48.050;11.696;2022-12-15T19:25:29;-0.30;99.90
17968;DHT22;9109;48.050;11.696;2022-12-15T19:28:32;-0.30;99.90
17968;DHT22;9109;48.050;11.696;2022-12-15T19:31:34;-0.20;99.90
17968;DHT22;9109;48.050;11.696;2022-12-15T19:34:36;-0.30;99.90
17968;DHT22;9109;48.050;11.696;2022-12-15T19:37:41;-0.20;99.90
17968;DHT22;9109;48.050;11.696;2022-12-15T19:40:45;-0.10;99.90
17968;DHT22;9109;48.050;11.696;2022-12-15T19:43:47;-0.10;99.90
17968;DHT22;9109;48.050;11.696;2022-12-15T19:46:50;-0.10;99.90
17968;DHT22;9109;48.050;11.696;2022-12-15T19:49:52;-0.10;99.90
17968;DHT22;9109;48.050;11.696;2022-12-15T19:52:58;0.00;99.90
17968;DHT22;9109;48.050;11.696;2022-12-15T19:56:01;0.10;99.90
17968;DHT22;9109;48.050;11.696;2022-12-15T19:59:03;0.20;99.90
17968;DHT22;9109;48.050;11.696;2022-12-15T20:02:05;0.20;99.90
17968;DHT22;9109;48.050;11.696;2022-12-15T20:05:08;0.30;99.90
17968;DHT22;9109;48.050;11.696;2022-12-15T20:08:19;0.30;99.90
17968;DHT22;9109;48.050;11.696;2022-12-15T20:11:24;0.30;99.90
17968;DHT22;9109;48.050;11.696;2022-12-15T20:14:26;0.40;99.90
17968;DHT22;9109;48.050;11.696;2022-12-15T20:17:28;0.30;99.90
17968;DHT22;9109;48.050;11.696;2022-12-15T20:20:30;0.20;99.90
17968;DHT22;9109;48.050;11.696;2022-12-15T20:23:33;0.30;99.90
17968;DHT22;9109;48.050;11.696;2022-12-15T20:26:36;0.40;99.90
17968;DHT22;9109;48.050;11.696;2022-12-15T20:29:39;0.50;99.90
17968;DHT22;9109;48.050;11.696;2022-12-15T20:32:41;0.60;99.90
17968;DHT22;9109;48.050;11.696;2022-12-15T20:35:47;0.50;99.90
17968;DHT22;9109;48.050;11.696;2022-12-15T20:38:55;0.50;99.90
17968;DHT22;9109;48.050;11.696;2022-12-15T20:41:59;0.50;99.90
17968;DHT22;9109;48.050;11.696;2022-12-15T20:45:02;0.50;99.90
17968;DHT22;9109;48.050;11.696;2022-12-15T20:48:05;0.50;99.90
17968;DHT22;9109;48.050;11.696;2022-12-15T20:51:08;0.60;99.90
17968;DHT22;9109;48.050;11.696;2022-12-15T20:54:18;0.50;99.90
17968;DHT22;9109;48.050;11.696;2022-12-15T20:57:21;0.60;99.90
17968;DHT22;9109;48.050;11.696;2022-12-15T21:00:29;0.60;99.90
17968;DHT22;9109;48.050;11.696;2022-12-15T21:03:45;0.60;99.90
17968;DHT22;9109;48.050;11.696;2022-12-15T21:07:00;0.70;99.90
17968;DHT22;9109;48.050;11.696;2022-12-15T21:10:19;0.70;99.90
17968;DHT22;9109;48.050;11.696;2022-12-15T21:13:36;0.80;99.90
17968;DHT22;9109;48.050;11.696;2022-12-15T21:16:44;0.70;99.90
17968;DHT22;9109;48.050;11.696;2022-12-15T21:19:48;0.70;99.90
17968;DHT22;9109;48.050;11.696;2022-12-15T21:22:52;0.80;99.90
17968;DHT22;9109;48.050;11.696;2022-12-15T21:29:54;0.80;99.90
17968;DHT22;9109;48.050;11.696;2022-12-15T21:32:59;0.90;99.90
17968;DHT22;9109;48.050;11.696;2022-12-15T21:36:04;0.80;99.90
17968;DHT22;9109;48.050;11.696;2022-12-15T21:39:14;0.80;99.90
17968;DHT22;9109;48.050;11.696;2022-12-15T21:42:21;0.80;99.90
17968;DHT22;9109;48.050;11.696;2022-12-15T21:45:29;0.80;99.90
17968;DHT22;9109;48.050;11.696;2022-12-15T21:48:38;0.90;99.90
17968;DHT22;9109;48.050;11.696;2022-12-15T21:51:59;0.80;99.90
17968;DHT22;9109;48.050;11.696;2022-12-15T21:55:08;0.80;99.90
17968;DHT22;9109;48.050;11.696;2022-12-15T21:58:36;0.90;99.90
17968;DHT22;9109;48.050;11.696;2022-12-15T22:01:49;0.90;99.90
17968;DHT22;9109;48.050;11.696;2022-12-15T22:04:56;0.90;99.90
17968;DHT22;9109;48.050;11.696;2022-12-15T22:08:27;1.00;99.90
17968;DHT22;9109;48.050;11.696;2022-12-15T22:11:53;1.00;99.90
17968;DHT22;9109;48.050;11.696;2022-12-15T22:15:01;1.00;99.90
17968;DHT22;9109;48.050;11.696;2022-12-15T22:18:09;1.00;99.90
17968;DHT22;9109;48.050;11.696;2022-12-15T22:21:19;1.00;99.90
17968;DHT22;9109;48.050;11.696;2022-12-15T22:24:21;0.90;99.90
17968;DHT22;9109;48.050;11.696;2022-12-15T22:27:44;0.90;99.90
17968;DHT22;9109;48.050;11.696;2022-12-15T22:30:47;1.00;99.90
17968;DHT22;9109;48.050;11.696;2022-12-15T22:33:53;1.10;99.90
17968;DHT22;9109;48.050;11.696;2022-12-15T22:36:56;1.10;99.90
17968;DHT22;9109;48.050;11.696;2022-12-15T22:40:08;1.20;99.90
17968;DHT22;9109;48.050;11.696;2022-12-15T22:43:20;1.10;99.90
17968;DHT22;9109;48.050;11.696;2022-12-15T22:46:38;1.10;99.90
17968;DHT22;9109;48.050;11.696;2022-12-15T22:49:44;1.10;99.90
17968;DHT22;9109;48.050;11.696;2022-12-15T22:52:47;1.10;99.90
17968;DHT22;9109;48.050;11.696;2022-12-15T22:55:49;1.20;99.90
17968;DHT22;9109;48.050;11.696;2022-12-15T22:58:55;1.30;99.90
17968;DHT22;9109;48.050;11.696;2022-12-15T23:01:59;1.20;99.90
17968;DHT22;9109;48.050;11.696;2022-12-15T23:05:11;1.20;99.90
17968;DHT22;9109;48.050;11.696;2022-12-15T23:08:19;1.20;99.90
17968;DHT22;9109;48.050;11.696;2022-12-15T23:11:24;1.20;99.90
17968;DHT22;9109;48.050;11.696;2022-12-15T23:14:38;1.20;99.90
17968;DHT22;9109;48.050;11.696;2022-12-15T23:17:57;1.20;99.90
17968;DHT22;9109;48.050;11.696;2022-12-15T23:21:01;1.30;99.90
17968;DHT22;9109;48.050;11.696;2022-12-15T23:24:03;1.20;99.90
17968;DHT22;9109;48.050;11.696;2022-12-15T23:27:08;1.20;99.90
17968;DHT22;9109;48.050;11.696;2022-12-15T23:30:11;1.10;99.90
17968;DHT22;9109;48.050;11.696;2022-12-15T23:33:20;1.10;99.90
17968;DHT22;9109;48.050;11.696;2022-12-15T23:36:26;1.10;99.90
17968;DHT22;9109;48.050;11.696;2022-12-15T23:39:31;1.10;99.90
17968;DHT22;9109;48.050;11.696;2022-12-15T23:42:34;1.20;99.90
17968;DHT22;9109;48.050;11.696;2022-12-15T23:45:38;1.20;99.90
17968;DHT22;9109;48.050;11.696;2022-12-15T23:48:46;1.10;99.90
17968;DHT22;9109;48.050;11.696;2022-12-15T23:51:49;1.10;99.90
17968;DHT22;9109;48.050;11.696;2022-12-15T23:54:51;1.10;99.90
17968;DHT22;9109;48.050;11.696;2022-12-15T23:57:54;1.10;99.90
